sensor_id;sensor_type;location;lat;lon;timestamp;temperature;humidity
64987;DHT22;67903;52.108;9.358;2023-04-16T00:01:57;9.20;83.40
64987;DHT22;67903;52.108;9.358;2023-04-16T00:04:24;9.20;83.10
64987;DHT22;67903;52.108;9.358;2023-04-16T00:06:51;9.20;83.00
64987;DHT22;67903;52.108;9.358;2023-04-16T00:09:18;9.20;82.90
64987;DHT22;67903;52.108;9.358;2023-04-16T00:11:45;9.20;83.10
64987;DHT22;67903;52.108;9.358;2023-04-16T00:14:12;9.20;83.40
64987;DHT22;67903;52.108;9.358;2023-04-16T00:16:38;9.20;83.40
64987;DHT22;67903;52.108;9.358;2023-04-16T00:19:05;9.20;83.60
64987;DHT22;67903;52.108;9.358;2023-04-16T00:21:32;9.20;83.40
64987;DHT22;67903;52.108;9.358;2023-04-16T00:23:59;9.20;83.40
64987;DHT22;67903;52.108;9.358;2023-04-16T00:26:26;9.20;83.10
64987;DHT22;67903;52.108;9.358;2023-04-16T00:28:53;9.20;82.90
64987;DHT22;67903;52.108;9.358;2023-04-16T00:31:30;9.20;82.90
64987;DHT22;67903;52.108;9.358;2023-04-16T00:33:58;9.20;83.00
64987;DHT22;67903;52.108;9.358;2023-04-16T00:36:26;9.20;82.70
64987;DHT22;67903;52.108;9.358;2023-04-16T00:38:54;9.20;82.90
64987;DHT22;67903;52.108;9.358;2023-04-16T00:41:22;9.20;83.00
64987;DHT22;67903;52.108;9.358;2023-04-16T00:43:49;9.20;83.10
64987;DHT22;67903;52.108;9.358;2023-04-16T00:46:18;9.20;83.20
64987;DHT22;67903;52.108;9.358;2023-04-16T00:48:46;9.20;83.40
64987;DHT22;67903;52.108;9.358;2023-04-16T00:51:13;9.20;83.30
64987;DHT22;67903;52.108;9.358;2023-04-16T00:53:42;9.20;83.60
64987;DHT22;67903;52.108;9.358;2023-04-16T00:56:11;9.20;83.60
64987;DHT22;67903;52.108;9.358;2023-04-16T00:58:38;9.20;83.60
64987;DHT22;67903;52.108;9.358;2023-04-16T01:01:05;9.10;83.90
64987;DHT22;67903;52.108;9.358;2023-04-16T01:03:38;9.20;83.50
64987;DHT22;67903;52.108;9.358;2023-04-16T01:06:06;9.20;82.80
64987;DHT22;67903;52.108;9.358;2023-04-16T01:08:33;9.20;82.90
64987;DHT22;67903;52.108;9.358;2023-04-16T01:11:00;9.20;82.70
64987;DHT22;67903;52.108;9.358;2023-04-16T01:13:27;9.20;83.00
64987;DHT22;67903;52.108;9.358;2023-04-16T01:15:54;9.20;82.90
64987;DHT22;67903;52.108;9.358;2023-04-16T01:18:22;9.20;83.00
64987;DHT22;67903;52.108;9.358;2023-04-16T01:20:49;9.20;83.00
64987;DHT22;67903;52.108;9.358;2023-04-16T01:23:17;9.20;83.00
64987;DHT22;67903;52.108;9.358;2023-04-16T01:25:45;9.20;83.10
64987;DHT22;67903;52.108;9.358;2023-04-16T01:28:12;9.20;83.30
64987;DHT22;67903;52.108;9.358;2023-04-16T01:30:39;9.20;82.90
64987;DHT22;67903;52.108;9.358;2023-04-16T01:33:26;9.10;83.10
64987;DHT22;67903;52.108;9.358;2023-04-16T01:35:53;9.10;83.00
64987;DHT22;67903;52.108;9.358;2023-04-16T01:38:20;9.00;83.50
64987;DHT22;67903;52.108;9.358;2023-04-16T01:40:46;9.00;83.50
64987;DHT22;67903;52.108;9.358;2023-04-16T01:43:13;9.00;83.40
64987;DHT22;67903;52.108;9.358;2023-04-16T01:45:41;9.00;83.60
64987;DHT22;67903;52.108;9.358;2023-04-16T01:48:08;9.00;83.80
64987;DHT22;67903;52.108;9.358;2023-04-16T01:50:35;9.00;83.60
64987;DHT22;67903;52.108;9.358;2023-04-16T01:53:01;9.00;83.40
64987;DHT22;67903;52.108;9.358;2023-04-16T01:55:32;8.90;83.40
64987;DHT22;67903;52.108;9.358;2023-04-16T01:57:59;8.90;83.20
64987;DHT22;67903;52.108;9.358;2023-04-16T02:00:29;9.00;83.10
64987;DHT22;67903;52.108;9.358;2023-04-16T02:02:57;8.90;83.30
64987;DHT22;67903;52.108;9.358;2023-04-16T02:05:27;9.00;83.10
64987;DHT22;67903;52.108;9.358;2023-04-16T02:07:53;9.00;83.00
64987;DHT22;67903;52.108;9.358;2023-04-16T02:10:20;8.90;83.10
64987;DHT22;67903;52.108;9.358;2023-04-16T02:12:47;8.90;83.20
64987;DHT22;67903;52.108;9.358;2023-04-16T02:15:14;8.90;83.10
64987;DHT22;67903;52.108;9.358;2023-04-16T02:17:42;8.90;83.50
64987;DHT22;67903;52.108;9.358;2023-04-16T02:20:09;8.90;83.10
64987;DHT22;67903;52.108;9.358;2023-04-16T02:22:47;8.90;82.90
64987;DHT22;67903;52.108;9.358;2023-04-16T02:25:17;8.90;83.00
64987;DHT22;67903;52.108;9.358;2023-04-16T02:27:44;8.90;82.60
64987;DHT22;67903;52.108;9.358;2023-04-16T02:30:31;8.90;82.60
64987;DHT22;67903;52.108;9.358;2023-04-16T02:33:01;8.80;82.40
64987;DHT22;67903;52.108;9.358;2023-04-16T02:35:36;8.80;82.60
64987;DHT22;67903;52.108;9.358;2023-04-16T02:38:03;8.80;82.90
64987;DHT22;67903;52.108;9.358;2023-04-16T02:40:31;8.60;82.80
64987;DHT22;67903;52.108;9.358;2023-04-16T02:42:58;8.70;82.40
64987;DHT22;67903;52.108;9.358;2023-04-16T02:45:26;8.60;82.40
64987;DHT22;67903;52.108;9.358;2023-04-16T02:47:53;8.60;82.60
64987;DHT22;67903;52.108;9.358;2023-04-16T02:50:19;8.60;82.40
64987;DHT22;67903;52.108;9.358;2023-04-16T02:52:47;8.60;82.60
64987;DHT22;67903;52.108;9.358;2023-04-16T02:55:14;8.50;82.90
64987;DHT22;67903;52.108;9.358;2023-04-16T02:57:41;8.50;83.00
64987;DHT22;67903;52.108;9.358;2023-04-16T03:00:09;8.50;83.00
64987;DHT22;67903;52.108;9.358;2023-04-16T03:02:36;8.50;83.10
64987;DHT22;67903;52.108;9.358;2023-04-16T03:05:03;8.40;83.10
64987;DHT22;67903;52.108;9.358;2023-04-16T03:07:30;8.30;83.20
64987;DHT22;67903;52.108;9.358;2023-04-16T03:09:57;8.30;83.40
64987;DHT22;67903;52.108;9.358;2023-04-16T03:12:24;8.20;83.30
64987;DHT22;67903;52.108;9.358;2023-04-16T03:14:51;8.30;83.30
64987;DHT22;67903;52.108;9.358;2023-04-16T03:17:18;8.10;83.50
64987;DHT22;67903;52.108;9.358;2023-04-16T03:19:45;8.10;83.40
64987;DHT22;67903;52.108;9.358;2023-04-16T03:22:12;8.20;83.00
64987;DHT22;67903;52.108;9.358;2023-04-16T03:24:39;8.20;82.80
64987;DHT22;67903;52.108;9.358;2023-04-16T03:27:06;8.20;82.60
64987;DHT22;67903;52.108;9.358;2023-04-16T03:29:35;8.20;82.80
64987;DHT22;67903;52.108;9.358;2023-04-16T03:32:03;8.20;82.50
64987;DHT22;67903;52.108;9.358;2023-04-16T03:34:30;8.20;82.80
64987;DHT22;67903;52.108;9.358;2023-04-16T03:36:57;8.10;83.10
64987;DHT22;67903;52.108;9.358;2023-04-16T03:39:24;8.10;83.30
64987;DHT22;67903;52.108;9.358;2023-04-16T03:41:51;8.30;82.60
64987;DHT22;67903;52.108;9.358;2023-04-16T03:44:18;8.20;82.20
64987;DHT22;67903;52.108;9.358;2023-04-16T03:46:44;8.30;82.40
64987;DHT22;67903;52.108;9.358;2023-04-16T03:49:11;8.20;82.70
64987;DHT22;67903;52.108;9.358;2023-04-16T03:51:38;8.20;83.10
64987;DHT22;67903;52.108;9.358;2023-04-16T03:54:05;8.20;82.80
64987;DHT22;67903;52.108;9.358;2023-04-16T03:56:32;8.20;82.80
64987;DHT22;67903;52.108;9.358;2023-04-16T03:58:59;8.20;83.00
64987;DHT22;67903;52.108;9.358;2023-04-16T04:01:26;8.10;83.00
64987;DHT22;67903;52.108;9.358;2023-04-16T04:03:53;8.00;83.40
64987;DHT22;67903;52.108;9.358;2023-04-16T04:06:20;8.10;83.60
64987;DHT22;67903;52.108;9.358;2023-04-16T04:08:47;8.10;83.50
64987;DHT22;67903;52.108;9.358;2023-04-16T04:11:14;8.10;83.30
64987;DHT22;67903;52.108;9.358;2023-04-16T04:13:42;8.00;83.30
64987;DHT22;67903;52.108;9.358;2023-04-16T04:16:09;8.10;83.50
64987;DHT22;67903;52.108;9.358;2023-04-16T04:18:36;8.10;83.40
64987;DHT22;67903;52.108;9.358;2023-04-16T04:21:07;8.00;83.40
64987;DHT22;67903;52.108;9.358;2023-04-16T04:23:35;8.00;83.80
64987;DHT22;67903;52.108;9.358;2023-04-16T04:26:02;8.00;84.30
64987;DHT22;67903;52.108;9.358;2023-04-16T04:28:31;8.00;83.70
64987;DHT22;67903;52.108;9.358;2023-04-16T04:30:59;8.00;83.80
64987;DHT22;67903;52.108;9.358;2023-04-16T04:33:27;8.00;84.00
64987;DHT22;67903;52.108;9.358;2023-04-16T04:35:54;8.00;84.20
64987;DHT22;67903;52.108;9.358;2023-04-16T04:38:21;7.90;84.00
64987;DHT22;67903;52.108;9.358;2023-04-16T04:40:51;7.90;84.10
64987;DHT22;67903;52.108;9.358;2023-04-16T04:43:20;7.80;83.50
64987;DHT22;67903;52.108;9.358;2023-04-16T04:45:47;7.70;84.40
64987;DHT22;67903;52.108;9.358;2023-04-16T04:48:15;7.80;84.00
64987;DHT22;67903;52.108;9.358;2023-04-16T04:50:44;7.70;84.10
64987;DHT22;67903;52.108;9.358;2023-04-16T04:53:12;7.60;84.00
64987;DHT22;67903;52.108;9.358;2023-04-16T04:55:40;7.50;85.00
64987;DHT22;67903;52.108;9.358;2023-04-16T04:58:07;7.60;84.30
64987;DHT22;67903;52.108;9.358;2023-04-16T05:00:35;7.60;84.10
64987;DHT22;67903;52.108;9.358;2023-04-16T05:03:05;7.60;83.90
64987;DHT22;67903;52.108;9.358;2023-04-16T05:05:32;7.60;83.90
64987;DHT22;67903;52.108;9.358;2023-04-16T05:07:59;7.60;84.00
64987;DHT22;67903;52.108;9.358;2023-04-16T05:10:26;7.60;83.90
64987;DHT22;67903;52.108;9.358;2023-04-16T05:12:53;7.50;84.20
64987;DHT22;67903;52.108;9.358;2023-04-16T05:15:20;7.50;84.10
64987;DHT22;67903;52.108;9.358;2023-04-16T05:17:47;7.50;84.50
64987;DHT22;67903;52.108;9.358;2023-04-16T05:20:13;7.50;84.40
64987;DHT22;67903;52.108;9.358;2023-04-16T05:22:40;7.50;84.60
64987;DHT22;67903;52.108;9.358;2023-04-16T05:25:07;7.50;83.90
64987;DHT22;67903;52.108;9.358;2023-04-16T05:27:34;7.60;84.10
64987;DHT22;67903;52.108;9.358;2023-04-16T05:30:02;7.50;84.30
64987;DHT22;67903;52.108;9.358;2023-04-16T05:32:29;7.50;84.40
64987;DHT22;67903;52.108;9.358;2023-04-16T05:34:55;7.50;84.60
64987;DHT22;67903;52.108;9.358;2023-04-16T05:37:22;7.50;84.80
64987;DHT22;67903;52.108;9.358;2023-04-16T05:39:49;7.60;84.60
64987;DHT22;67903;52.108;9.358;2023-04-16T05:42:16;7.60;84.20
64987;DHT22;67903;52.108;9.358;2023-04-16T05:44:43;7.50;84.60
64987;DHT22;67903;52.108;9.358;2023-04-16T05:47:09;7.60;84.40
64987;DHT22;67903;52.108;9.358;2023-04-16T05:49:36;7.60;84.00
64987;DHT22;67903;52.108;9.358;2023-04-16T05:52:04;7.50;84.70
64987;DHT22;67903;52.108;9.358;2023-04-16T05:54:30;7.70;84.00
64987;DHT22;67903;52.108;9.358;2023-04-16T05:56:59;7.60;83.80
64987;DHT22;67903;52.108;9.358;2023-04-16T05:59:27;7.70;83.90
64987;DHT22;67903;52.108;9.358;2023-04-16T06:01:54;7.70;84.00
64987;DHT22;67903;52.108;9.358;2023-04-16T06:04:21;7.80;83.90
64987;DHT22;67903;52.108;9.358;2023-04-16T06:06:48;7.70;83.70
64987;DHT22;67903;52.108;9.358;2023-04-16T06:09:15;7.80;83.50
64987;DHT22;67903;52.108;9.358;2023-04-16T06:11:42;7.80;83.60
64987;DHT22;67903;52.108;9.358;2023-04-16T06:14:09;7.80;83.20
64987;DHT22;67903;52.108;9.358;2023-04-16T06:16:36;7.80;83.20
64987;DHT22;67903;52.108;9.358;2023-04-16T06:19:03;7.80;83.20
64987;DHT22;67903;52.108;9.358;2023-04-16T06:21:30;7.80;83.10
64987;DHT22;67903;52.108;9.358;2023-04-16T06:23:57;7.80;83.30
64987;DHT22;67903;52.108;9.358;2023-04-16T06:26:24;7.90;82.70
64987;DHT22;67903;52.108;9.358;2023-04-16T06:28:51;8.00;82.40
64987;DHT22;67903;52.108;9.358;2023-04-16T06:31:18;8.00;82.40
64987;DHT22;67903;52.108;9.358;2023-04-16T06:33:44;8.00;82.30
64987;DHT22;67903;52.108;9.358;2023-04-16T06:36:11;8.00;82.20
64987;DHT22;67903;52.108;9.358;2023-04-16T06:38:38;8.10;81.70
64987;DHT22;67903;52.108;9.358;2023-04-16T06:41:05;8.10;81.90
64987;DHT22;67903;52.108;9.358;2023-04-16T06:43:31;8.10;81.90
64987;DHT22;67903;52.108;9.358;2023-04-16T06:45:59;8.10;81.90
64987;DHT22;67903;52.108;9.358;2023-04-16T06:48:26;8.10;82.00
64987;DHT22;67903;52.108;9.358;2023-04-16T06:50:53;8.10;81.80
64987;DHT22;67903;52.108;9.358;2023-04-16T06:53:22;8.20;81.80
64987;DHT22;67903;52.108;9.358;2023-04-16T06:55:49;8.20;81.30
64987;DHT22;67903;52.108;9.358;2023-04-16T06:58:16;8.20;81.10
64987;DHT22;67903;52.108;9.358;2023-04-16T07:00:43;8.20;81.60
64987;DHT22;67903;52.108;9.358;2023-04-16T07:03:10;8.20;81.70
64987;DHT22;67903;52.108;9.358;2023-04-16T07:05:37;8.20;81.20
64987;DHT22;67903;52.108;9.358;2023-04-16T07:08:04;8.20;81.30
64987;DHT22;67903;52.108;9.358;2023-04-16T07:10:31;8.10;81.50
64987;DHT22;67903;52.108;9.358;2023-04-16T07:12:58;8.10;81.40
64987;DHT22;67903;52.108;9.358;2023-04-16T07:15:28;8.20;81.60
64987;DHT22;67903;52.108;9.358;2023-04-16T07:17:54;8.20;81.30
64987;DHT22;67903;52.108;9.358;2023-04-16T07:20:21;8.30;81.20
64987;DHT22;67903;52.108;9.358;2023-04-16T07:22:48;8.30;81.10
64987;DHT22;67903;52.108;9.358;2023-04-16T07:25:15;8.30;80.80
64987;DHT22;67903;52.108;9.358;2023-04-16T07:27:42;8.20;81.00
64987;DHT22;67903;52.108;9.358;2023-04-16T07:30:09;8.30;80.90
64987;DHT22;67903;52.108;9.358;2023-04-16T07:32:36;8.30;80.70
64987;DHT22;67903;52.108;9.358;2023-04-16T07:35:03;8.40;80.50
64987;DHT22;67903;52.108;9.358;2023-04-16T07:37:29;8.50;79.90
64987;DHT22;67903;52.108;9.358;2023-04-16T07:39:57;8.50;79.60
64987;DHT22;67903;52.108;9.358;2023-04-16T07:42:24;8.60;79.40
64987;DHT22;67903;52.108;9.358;2023-04-16T07:44:50;8.60;79.70
64987;DHT22;67903;52.108;9.358;2023-04-16T07:47:17;8.60;79.10
64987;DHT22;67903;52.108;9.358;2023-04-16T07:49:44;8.60;79.90
64987;DHT22;67903;52.108;9.358;2023-04-16T07:52:11;8.60;79.80
64987;DHT22;67903;52.108;9.358;2023-04-16T07:54:38;8.80;79.00
64987;DHT22;67903;52.108;9.358;2023-04-16T07:57:04;8.90;78.50
64987;DHT22;67903;52.108;9.358;2023-04-16T07:59:31;8.80;78.70
64987;DHT22;67903;52.108;9.358;2023-04-16T08:01:58;8.70;78.60
64987;DHT22;67903;52.108;9.358;2023-04-16T08:04:25;8.70;78.70
64987;DHT22;67903;52.108;9.358;2023-04-16T08:06:53;8.70;78.60
64987;DHT22;67903;52.108;9.358;2023-04-16T08:09:25;8.60;78.90
64987;DHT22;67903;52.108;9.358;2023-04-16T08:11:52;8.60;78.50
64987;DHT22;67903;52.108;9.358;2023-04-16T08:14:19;8.70;78.70
64987;DHT22;67903;52.108;9.358;2023-04-16T08:16:46;8.80;79.10
64987;DHT22;67903;52.108;9.358;2023-04-16T08:19:12;9.00;78.20
64987;DHT22;67903;52.108;9.358;2023-04-16T08:21:39;9.20;77.40
64987;DHT22;67903;52.108;9.358;2023-04-16T08:24:07;9.10;77.20
64987;DHT22;67903;52.108;9.358;2023-04-16T08:26:33;9.10;77.70
64987;DHT22;67903;52.108;9.358;2023-04-16T08:29:00;9.20;77.30
64987;DHT22;67903;52.108;9.358;2023-04-16T08:31:27;9.20;77.10
64987;DHT22;67903;52.108;9.358;2023-04-16T08:33:54;9.50;76.80
64987;DHT22;67903;52.108;9.358;2023-04-16T08:36:21;9.70;75.80
64987;DHT22;67903;52.108;9.358;2023-04-16T08:38:47;9.70;75.70
64987;DHT22;67903;52.108;9.358;2023-04-16T08:41:14;9.90;75.50
64987;DHT22;67903;52.108;9.358;2023-04-16T08:43:44;10.00;75.10
64987;DHT22;67903;52.108;9.358;2023-04-16T08:46:15;10.10;75.00
64987;DHT22;67903;52.108;9.358;2023-04-16T08:48:43;10.10;74.80
64987;DHT22;67903;52.108;9.358;2023-04-16T08:51:12;10.10;74.80
64987;DHT22;67903;52.108;9.358;2023-04-16T08:53:53;10.10;74.50
64987;DHT22;67903;52.108;9.358;2023-04-16T08:56:25;10.00;74.70
64987;DHT22;67903;52.108;9.358;2023-04-16T08:58:53;10.00;75.10
64987;DHT22;67903;52.108;9.358;2023-04-16T09:01:21;10.10;74.90
64987;DHT22;67903;52.108;9.358;2023-04-16T09:03:48;10.00;74.80
64987;DHT22;67903;52.108;9.358;2023-04-16T09:06:15;9.80;75.70
64987;DHT22;67903;52.108;9.358;2023-04-16T09:08:43;9.80;76.00
64987;DHT22;67903;52.108;9.358;2023-04-16T09:11:17;9.70;75.90
64987;DHT22;67903;52.108;9.358;2023-04-16T09:13:45;9.50;76.50
64987;DHT22;67903;52.108;9.358;2023-04-16T09:16:13;9.50;77.10
64987;DHT22;67903;52.108;9.358;2023-04-16T09:18:40;9.70;76.40
64987;DHT22;67903;52.108;9.358;2023-04-16T09:21:09;9.70;76.40
64987;DHT22;67903;52.108;9.358;2023-04-16T09:23:39;9.70;76.20
64987;DHT22;67903;52.108;9.358;2023-04-16T09:26:06;9.70;76.50
64987;DHT22;67903;52.108;9.358;2023-04-16T09:28:46;9.60;76.60
64987;DHT22;67903;52.108;9.358;2023-04-16T09:31:14;9.60;77.10
64987;DHT22;67903;52.108;9.358;2023-04-16T09:33:43;9.70;77.20
64987;DHT22;67903;52.108;9.358;2023-04-16T09:36:10;9.60;76.60
64987;DHT22;67903;52.108;9.358;2023-04-16T09:38:47;9.60;76.90
64987;DHT22;67903;52.108;9.358;2023-04-16T09:41:15;9.50;77.30
64987;DHT22;67903;52.108;9.358;2023-04-16T09:43:54;9.50;77.10
64987;DHT22;67903;52.108;9.358;2023-04-16T09:46:44;9.40;77.30
64987;DHT22;67903;52.108;9.358;2023-04-16T09:49:15;9.40;77.40
64987;DHT22;67903;52.108;9.358;2023-04-16T09:51:43;9.40;77.50
64987;DHT22;67903;52.108;9.358;2023-04-16T09:54:10;9.40;77.20
64987;DHT22;67903;52.108;9.358;2023-04-16T09:56:40;9.50;76.70
64987;DHT22;67903;52.108;9.358;2023-04-16T09:59:16;9.40;76.90
64987;DHT22;67903;52.108;9.358;2023-04-16T10:01:43;9.40;76.90
64987;DHT22;67903;52.108;9.358;2023-04-16T10:04:12;9.50;76.90
64987;DHT22;67903;52.108;9.358;2023-04-16T10:06:39;9.60;76.90
64987;DHT22;67903;52.108;9.358;2023-04-16T10:09:07;9.70;76.80
64987;DHT22;67903;52.108;9.358;2023-04-16T10:11:35;9.80;76.40
64987;DHT22;67903;52.108;9.358;2023-04-16T10:14:02;9.70;76.70
64987;DHT22;67903;52.108;9.358;2023-04-16T10:16:31;9.70;76.70
64987;DHT22;67903;52.108;9.358;2023-04-16T10:18:58;9.70;77.20
64987;DHT22;67903;52.108;9.358;2023-04-16T10:21:25;9.70;76.90
64987;DHT22;67903;52.108;9.358;2023-04-16T10:23:59;9.80;76.90
64987;DHT22;67903;52.108;9.358;2023-04-16T10:26:27;9.90;76.50
64987;DHT22;67903;52.108;9.358;2023-04-16T10:28:55;10.00;76.30
64987;DHT22;67903;52.108;9.358;2023-04-16T10:31:24;9.90;76.30
64987;DHT22;67903;52.108;9.358;2023-04-16T10:33:51;9.80;76.30
64987;DHT22;67903;52.108;9.358;2023-04-16T10:36:25;9.80;76.50
64987;DHT22;67903;52.108;9.358;2023-04-16T10:38:58;9.80;76.50
64987;DHT22;67903;52.108;9.358;2023-04-16T10:41:26;9.70;76.40
64987;DHT22;67903;52.108;9.358;2023-04-16T10:44:03;9.70;76.40
64987;DHT22;67903;52.108;9.358;2023-04-16T10:46:42;9.70;76.70
64987;DHT22;67903;52.108;9.358;2023-04-16T10:51:41;9.70;76.60
64987;DHT22;67903;52.108;9.358;2023-04-16T10:56:36;9.80;75.40
64987;DHT22;67903;52.108;9.358;2023-04-16T10:59:07;9.60;75.70
64987;DHT22;67903;52.108;9.358;2023-04-16T11:01:46;9.70;75.80
64987;DHT22;67903;52.108;9.358;2023-04-16T11:07:01;9.80;75.50
64987;DHT22;67903;52.108;9.358;2023-04-16T11:12:11;9.90;75.50
64987;DHT22;67903;52.108;9.358;2023-04-16T11:14:39;9.80;75.40
64987;DHT22;67903;52.108;9.358;2023-04-16T11:17:07;9.80;75.50
64987;DHT22;67903;52.108;9.358;2023-04-16T11:19:37;9.70;75.50
64987;DHT22;67903;52.108;9.358;2023-04-16T11:22:04;9.60;76.00
64987;DHT22;67903;52.108;9.358;2023-04-16T11:24:31;9.60;75.80
64987;DHT22;67903;52.108;9.358;2023-04-16T11:26:58;9.70;75.90
64987;DHT22;67903;52.108;9.358;2023-04-16T11:29:25;9.60;76.00
64987;DHT22;67903;52.108;9.358;2023-04-16T11:31:53;9.50;76.00
64987;DHT22;67903;52.108;9.358;2023-04-16T11:34:21;9.60;76.20
64987;DHT22;67903;52.108;9.358;2023-04-16T11:36:49;9.60;76.30
64987;DHT22;67903;52.108;9.358;2023-04-16T11:39:17;9.60;76.20
64987;DHT22;67903;52.108;9.358;2023-04-16T11:41:48;9.70;76.30
64987;DHT22;67903;52.108;9.358;2023-04-16T11:44:25;9.70;76.10
64987;DHT22;67903;52.108;9.358;2023-04-16T11:46:53;9.70;76.40
64987;DHT22;67903;52.108;9.358;2023-04-16T11:49:29;9.70;76.60
64987;DHT22;67903;52.108;9.358;2023-04-16T11:51:57;9.80;76.10
64987;DHT22;67903;52.108;9.358;2023-04-16T11:54:24;9.80;76.30
64987;DHT22;67903;52.108;9.358;2023-04-16T11:56:52;9.70;76.30
64987;DHT22;67903;52.108;9.358;2023-04-16T11:59:20;9.50;77.10
64987;DHT22;67903;52.108;9.358;2023-04-16T12:01:50;9.60;77.30
64987;DHT22;67903;52.108;9.358;2023-04-16T12:04:18;9.50;77.70
64987;DHT22;67903;52.108;9.358;2023-04-16T12:07:06;9.60;77.50
64987;DHT22;67903;52.108;9.358;2023-04-16T12:09:33;9.60;77.50
64987;DHT22;67903;52.108;9.358;2023-04-16T12:12:06;9.40;77.80
64987;DHT22;67903;52.108;9.358;2023-04-16T12:14:50;9.40;78.20
64987;DHT22;67903;52.108;9.358;2023-04-16T12:17:20;9.50;78.20
64987;DHT22;67903;52.108;9.358;2023-04-16T12:20:02;9.50;78.20
64987;DHT22;67903;52.108;9.358;2023-04-16T12:22:37;9.60;77.90
64987;DHT22;67903;52.108;9.358;2023-04-16T12:25:05;9.50;78.00
64987;DHT22;67903;52.108;9.358;2023-04-16T12:30:14;9.60;78.80
64987;DHT22;67903;52.108;9.358;2023-04-16T12:32:42;9.70;78.90
64987;DHT22;67903;52.108;9.358;2023-04-16T12:35:10;9.70;79.10
64987;DHT22;67903;52.108;9.358;2023-04-16T12:37:38;9.70;79.70
64987;DHT22;67903;52.108;9.358;2023-04-16T12:40:05;9.70;80.20
64987;DHT22;67903;52.108;9.358;2023-04-16T12:42:33;9.60;81.10
64987;DHT22;67903;52.108;9.358;2023-04-16T12:45:03;9.60;81.70
64987;DHT22;67903;52.108;9.358;2023-04-16T12:47:31;9.50;81.80
64987;DHT22;67903;52.108;9.358;2023-04-16T12:49:58;9.40;82.30
64987;DHT22;67903;52.108;9.358;2023-04-16T12:52:26;9.40;82.90
64987;DHT22;67903;52.108;9.358;2023-04-16T12:54:53;9.30;83.50
64987;DHT22;67903;52.108;9.358;2023-04-16T12:57:20;9.20;84.00
64987;DHT22;67903;52.108;9.358;2023-04-16T12:59:47;9.20;84.60
64987;DHT22;67903;52.108;9.358;2023-04-16T13:02:13;9.20;84.50
64987;DHT22;67903;52.108;9.358;2023-04-16T13:04:40;9.20;84.50
64987;DHT22;67903;52.108;9.358;2023-04-16T13:07:07;9.20;84.50
64987;DHT22;67903;52.108;9.358;2023-04-16T13:09:34;9.20;84.60
64987;DHT22;67903;52.108;9.358;2023-04-16T13:12:04;9.00;84.90
64987;DHT22;67903;52.108;9.358;2023-04-16T13:14:31;9.00;85.20
64987;DHT22;67903;52.108;9.358;2023-04-16T13:16:58;9.10;85.20
64987;DHT22;67903;52.108;9.358;2023-04-16T13:19:25;9.10;85.30
64987;DHT22;67903;52.108;9.358;2023-04-16T13:21:52;9.20;85.40
64987;DHT22;67903;52.108;9.358;2023-04-16T13:24:19;9.20;85.30
64987;DHT22;67903;52.108;9.358;2023-04-16T13:26:46;9.20;85.30
64987;DHT22;67903;52.108;9.358;2023-04-16T13:29:12;9.20;85.10
64987;DHT22;67903;52.108;9.358;2023-04-16T13:31:39;9.40;85.00
64987;DHT22;67903;52.108;9.358;2023-04-16T13:34:06;9.40;84.50
64987;DHT22;67903;52.108;9.358;2023-04-16T13:36:33;9.50;84.00
64987;DHT22;67903;52.108;9.358;2023-04-16T13:39:01;9.60;83.40
64987;DHT22;67903;52.108;9.358;2023-04-16T13:41:30;9.60;83.50
64987;DHT22;67903;52.108;9.358;2023-04-16T13:43:57;9.70;83.00
64987;DHT22;67903;52.108;9.358;2023-04-16T13:46:24;9.70;82.90
64987;DHT22;67903;52.108;9.358;2023-04-16T13:48:52;9.80;82.60
64987;DHT22;67903;52.108;9.358;2023-04-16T13:51:19;9.80;82.30
64987;DHT22;67903;52.108;9.358;2023-04-16T13:53:46;10.00;82.10
64987;DHT22;67903;52.108;9.358;2023-04-16T13:56:13;9.90;82.80
64987;DHT22;67903;52.108;9.358;2023-04-16T13:58:40;10.00;82.80
64987;DHT22;67903;52.108;9.358;2023-04-16T14:01:08;10.10;82.00
64987;DHT22;67903;52.108;9.358;2023-04-16T14:03:35;10.10;82.20
64987;DHT22;67903;52.108;9.358;2023-04-16T14:06:04;10.20;82.30
64987;DHT22;67903;52.108;9.358;2023-04-16T14:08:31;10.20;82.10
64987;DHT22;67903;52.108;9.358;2023-04-16T14:10:58;10.30;81.60
64987;DHT22;67903;52.108;9.358;2023-04-16T14:13:24;10.30;81.30
64987;DHT22;67903;52.108;9.358;2023-04-16T14:15:54;10.20;81.40
64987;DHT22;67903;52.108;9.358;2023-04-16T14:18:21;10.30;81.50
64987;DHT22;67903;52.108;9.358;2023-04-16T14:20:48;10.40;81.50
64987;DHT22;67903;52.108;9.358;2023-04-16T14:23:15;10.60;80.00
64987;DHT22;67903;52.108;9.358;2023-04-16T14:25:41;10.60;79.80
64987;DHT22;67903;52.108;9.358;2023-04-16T14:28:08;10.80;79.80
64987;DHT22;67903;52.108;9.358;2023-04-16T14:30:35;10.90;79.50
64987;DHT22;67903;52.108;9.358;2023-04-16T14:33:05;11.00;79.00
64987;DHT22;67903;52.108;9.358;2023-04-16T14:35:32;11.10;79.10
64987;DHT22;67903;52.108;9.358;2023-04-16T14:38:00;11.30;78.30
64987;DHT22;67903;52.108;9.358;2023-04-16T14:40:27;11.50;76.80
64987;DHT22;67903;52.108;9.358;2023-04-16T14:42:53;11.70;76.10
64987;DHT22;67903;52.108;9.358;2023-04-16T14:45:20;11.90;75.40
64987;DHT22;67903;52.108;9.358;2023-04-16T14:47:47;12.10;75.20
64987;DHT22;67903;52.108;9.358;2023-04-16T14:50:15;12.50;74.30
64987;DHT22;67903;52.108;9.358;2023-04-16T14:52:42;12.80;72.80
64987;DHT22;67903;52.108;9.358;2023-04-16T14:55:09;12.70;72.40
64987;DHT22;67903;52.108;9.358;2023-04-16T14:57:36;12.60;73.10
64987;DHT22;67903;52.108;9.358;2023-04-16T15:00:05;12.50;72.90
64987;DHT22;67903;52.108;9.358;2023-04-16T15:02:37;12.40;73.30
64987;DHT22;67903;52.108;9.358;2023-04-16T15:05:05;12.40;73.20
64987;DHT22;67903;52.108;9.358;2023-04-16T15:07:33;12.20;73.30
64987;DHT22;67903;52.108;9.358;2023-04-16T15:10:00;12.00;73.80
64987;DHT22;67903;52.108;9.358;2023-04-16T15:12:26;12.00;74.10
64987;DHT22;67903;52.108;9.358;2023-04-16T15:14:53;12.00;73.80
64987;DHT22;67903;52.108;9.358;2023-04-16T15:17:20;11.90;72.60
64987;DHT22;67903;52.108;9.358;2023-04-16T15:19:47;11.80;72.00
64987;DHT22;67903;52.108;9.358;2023-04-16T15:22:14;11.80;72.20
64987;DHT22;67903;52.108;9.358;2023-04-16T15:24:41;11.80;72.30
64987;DHT22;67903;52.108;9.358;2023-04-16T15:27:07;11.80;72.30
64987;DHT22;67903;52.108;9.358;2023-04-16T15:29:37;11.90;71.80
64987;DHT22;67903;52.108;9.358;2023-04-16T15:32:04;11.90;71.60
64987;DHT22;67903;52.108;9.358;2023-04-16T15:34:32;11.90;71.60
64987;DHT22;67903;52.108;9.358;2023-04-16T15:36:59;11.90;71.50
64987;DHT22;67903;52.108;9.358;2023-04-16T15:39:26;11.80;71.60
64987;DHT22;67903;52.108;9.358;2023-04-16T15:41:53;11.70;71.70
64987;DHT22;67903;52.108;9.358;2023-04-16T15:44:29;11.50;72.30
64987;DHT22;67903;52.108;9.358;2023-04-16T15:46:56;11.50;72.00
64987;DHT22;67903;52.108;9.358;2023-04-16T15:49:23;11.60;72.30
64987;DHT22;67903;52.108;9.358;2023-04-16T15:51:50;11.70;72.10
64987;DHT22;67903;52.108;9.358;2023-04-16T15:54:17;11.50;72.20
64987;DHT22;67903;52.108;9.358;2023-04-16T15:56:45;11.50;72.50
64987;DHT22;67903;52.108;9.358;2023-04-16T15:59:12;11.50;72.80
64987;DHT22;67903;52.108;9.358;2023-04-16T16:01:39;11.50;72.90